Language: 


Des rapports , des résumés tant et plus, au choix de chacun....


Données statistiques de la station
Quotidien Rapport Janvier 9, 2017 Unités:  Métrique    Anglais   les deux
« Précédent Jour
Suivant Jour »
Quotidien Hebdomadaire Mensuel Annuel Actuel
  Haut: Bas: Moyen:
Température: 8.1 °C 0.0 °C 7 °C
Pt de rosée: 7.8 °C 5.5 °C 6.6 °C
Humidité: 98 % 0 % 97 %
Vitesse du vent: 21.9 km/h 0.0 km/h 8 km/h
Rafales: 25.9 km/h - -
Vent:- - SSW
Pression: 1030.0 hPa 0.0 hPa -
Précipitation: 6.6 mm    
Historical Graphs
 
 
Données statistiques pour Janvier 9, 2017
Heure Température Point de rosée Pression Vent Vitesse du vent Refales Humidité Pluie (taux horaire)
00:01 6.2 °C 5.9 °C 1030.0 hPa Calm   7.6 km/h 98 % 0.0 mm
00:06 6.2 °C 5.9 °C 1030.0 hPa SW 3.2 km/h 7.6 km/h 98 % 0.0 mm
00:11 6.2 °C 5.9 °C 1029.0 hPa Calm   5.0 km/h 98 % 0.0 mm
00:16 6.2 °C 5.9 °C 1029.0 hPa South 6.1 km/h 7.2 km/h 98 % 0.0 mm
00:21 6.2 °C 5.9 °C 1029.0 hPa South 3.2 km/h 7.6 km/h 98 % 0.0 mm
00:26 6.2 °C 5.9 °C 1029.0 hPa South 3.5 km/h 7.6 km/h 98 % 0.0 mm
00:31 6.2 °C 5.9 °C 1029.0 hPa Calm   7.6 km/h 98 % 0.0 mm
00:36 6.2 °C 5.9 °C 1029.0 hPa SSE 1.8 km/h 6.4 km/h 98 % 0.0 mm
00:41 6.2 °C 5.9 °C 1029.0 hPa Calm   5.5 km/h 98 % 0.0 mm
00:46 6.2 °C 5.9 °C 1029.0 hPa Calm   1.8 km/h 98 % 0.0 mm
00:51 6.2 °C 5.9 °C 1029.0 hPa Calm   3.5 km/h 98 % 0.0 mm
01:01 6.1 °C 5.8 °C 1029.0 hPa Calm   2.6 km/h 98 % 0.0 mm
01:11 6.1 °C 5.8 °C 1029.0 hPa SSW 4.0 km/h 9.0 km/h 98 % 0.0 mm
01:16 6.1 °C 5.8 °C 1029.0 hPa SSW 4.7 km/h 8.7 km/h 98 % 0.0 mm
01:21 6.2 °C 5.9 °C 1029.0 hPa SSW 3.5 km/h 6.4 km/h 98 % 0.0 mm
01:26 6.2 °C 5.9 °C 1029.0 hPa South 1.4 km/h 6.4 km/h 98 % 0.0 mm
01:31 6.2 °C 5.9 °C 1029.0 hPa SSW 5.8 km/h 6.9 km/h 98 % 0.0 mm
01:36 6.2 °C 5.9 °C 1029.0 hPa Calm   6.9 km/h 98 % 0.0 mm
01:41 6.3 °C 6.0 °C 1029.0 hPa Calm   6.4 km/h 98 % 0.0 mm
01:46 6.3 °C 6.0 °C 1029.0 hPa South 6.4 km/h 7.9 km/h 98 % 0.0 mm
01:51 6.3 °C 6.0 °C 1029.0 hPa South 5.8 km/h 7.9 km/h 98 % 0.0 mm
01:56 6.3 °C 6.0 °C 1029.0 hPa South 6.4 km/h 8.7 km/h 98 % 0.0 mm
02:02 0.0 °C 6.0 °C 0.0 hPa SSW 6.4 km/h 9.3 km/h 0 % 0.0 mm
02:07 6.3 °C 6.0 °C 1029.0 hPa SSW 5.5 km/h 9.3 km/h 98 % 0.0 mm
02:12 6.3 °C 6.0 °C 1029.0 hPa SSW 4.3 km/h 8.7 km/h 98 % 0.0 mm
02:17 6.3 °C 6.0 °C 1029.0 hPa SSW 5.5 km/h 8.7 km/h 98 % 0.0 mm
02:22 6.3 °C 6.0 °C 1028.0 hPa South 7.6 km/h 7.9 km/h 98 % 0.0 mm
02:27 6.4 °C 6.1 °C 1028.0 hPa South 9.0 km/h 9.3 km/h 98 % 0.0 mm
02:32 6.4 °C 6.1 °C 1028.0 hPa Calm   10.5 km/h 98 % 0.0 mm
02:43 6.4 °C 6.1 °C 1029.0 hPa SSW 6.4 km/h 9.0 km/h 98 % 0.0 mm
02:48 6.4 °C 6.1 °C 1029.0 hPa South 6.1 km/h 9.0 km/h 98 % 0.0 mm
02:53 6.4 °C 6.1 °C 1028.0 hPa South 5.0 km/h 9.0 km/h 98 % 0.0 mm
02:58 6.4 °C 6.1 °C 1028.0 hPa South 6.1 km/h 7.9 km/h 98 % 0.0 mm
03:03 6.4 °C 6.1 °C 1028.0 hPa South 4.0 km/h 9.0 km/h 98 % 0.0 mm
03:08 6.4 °C 6.1 °C 1028.0 hPa SSW 5.8 km/h 9.0 km/h 98 % 0.0 mm
03:13 6.4 °C 6.1 °C 1028.0 hPa SSW 6.1 km/h 6.1 km/h 98 % 0.0 mm
03:18 6.4 °C 6.1 °C 1028.0 hPa SW 6.1 km/h 9.0 km/h 98 % 0.0 mm
03:23 6.4 °C 6.1 °C 1027.0 hPa SSW 8.7 km/h 9.0 km/h 98 % 0.0 mm
03:28 6.4 °C 6.1 °C 1027.0 hPa SSW 3.5 km/h 9.3 km/h 98 % 0.0 mm
03:37 6.4 °C 6.1 °C 1028.0 hPa Calm   8.7 km/h 98 % 0.0 mm
03:42 6.4 °C 6.1 °C 1028.0 hPa SW 8.7 km/h 8.7 km/h 98 % 0.0 mm
03:47 6.4 °C 6.2 °C 1028.0 hPa Calm   8.7 km/h 98 % 0.0 mm
03:52 6.4 °C 6.2 °C 1027.0 hPa Calm   7.9 km/h 98 % 0.0 mm
03:57 6.4 °C 6.2 °C 1027.0 hPa SW 5.5 km/h 5.5 km/h 98 % 0.0 mm
04:02 6.4 °C 6.2 °C 1027.0 hPa Calm   5.5 km/h 98 % 0.0 mm
04:07 6.4 °C 6.2 °C 1026.0 hPa SW 5.8 km/h 5.8 km/h 98 % 0.0 mm
04:12 6.4 °C 6.2 °C 1026.0 hPa Calm   6.9 km/h 98 % 0.0 mm
04:17 6.4 °C 6.2 °C 1026.0 hPa Calm   6.9 km/h 98 % 0.0 mm
04:22 6.4 °C 6.2 °C 1028.0 hPa South 5.5 km/h 5.5 km/h 98 % 0.0 mm
04:27 6.4 °C 6.2 °C 1028.0 hPa SSW 9.0 km/h 10.5 km/h 98 % 0.0 mm
04:32 6.4 °C 6.2 °C 1028.0 hPa South 2.1 km/h 10.5 km/h 98 % 0.0 mm
04:37 6.4 °C 6.2 °C 1027.0 hPa South 5.5 km/h 6.9 km/h 98 % 0.0 mm
04:42 6.4 °C 6.2 °C 1027.0 hPa Calm   6.9 km/h 98 % 0.0 mm
04:47 6.4 °C 6.1 °C 1027.0 hPa Calm   6.9 km/h 98 % 0.0 mm
04:52 6.4 °C 6.1 °C 1027.0 hPa Calm   6.9 km/h 98 % 0.0 mm
04:57 6.4 °C 6.1 °C 1027.0 hPa WSW 6.9 km/h 6.9 km/h 98 % 0.0 mm
05:02 6.4 °C 6.1 °C 1027.0 hPa SW 5.0 km/h 9.3 km/h 98 % 0.0 mm
05:07 6.4 °C 6.1 °C 1027.0 hPa Calm   9.3 km/h 98 % 0.0 mm
05:12 6.4 °C 6.1 °C 1027.0 hPa SW 5.5 km/h 7.6 km/h 98 % 0.0 mm
05:17 6.4 °C 6.1 °C 1027.0 hPa SW 6.4 km/h 9.0 km/h 98 % 0.0 mm
05:22 6.4 °C 6.1 °C 1026.0 hPa Calm   9.0 km/h 98 % 0.0 mm
05:27 6.4 °C 6.2 °C 1026.0 hPa Calm   6.9 km/h 98 % 0.0 mm
05:32 6.4 °C 6.2 °C 1026.0 hPa Calm   5.8 km/h 98 % 0.0 mm
05:37 6.4 °C 6.2 °C 1026.0 hPa Calm   5.8 km/h 98 % 0.0 mm
05:42 6.4 °C 6.1 °C 1026.0 hPa Calm     98 % 0.0 mm
05:47 6.4 °C 6.1 °C 1026.0 hPa Calm     98 % 0.0 mm
05:52 6.4 °C 6.1 °C 1026.0 hPa Calm     98 % 0.0 mm
05:57 6.4 °C 6.1 °C 1026.0 hPa Calm   6.4 km/h 98 % 0.0 mm
06:02 6.4 °C 6.1 °C 1026.0 hPa Calm   6.4 km/h 98 % 0.0 mm
06:07 6.4 °C 6.1 °C 1026.0 hPa Calm   4.0 km/h 98 % 0.0 mm
06:12 6.3 °C 6.0 °C 1026.0 hPa Calm   4.0 km/h 98 % 0.0 mm
06:17 6.3 °C 6.0 °C 1026.0 hPa Calm     98 % 0.0 mm
06:22 6.3 °C 6.0 °C 1026.0 hPa South 8.7 km/h 9.0 km/h 98 % 0.0 mm
06:27 6.4 °C 6.1 °C 1026.0 hPa South 6.9 km/h 10.5 km/h 98 % 0.0 mm
06:32 6.4 °C 6.1 °C 1026.0 hPa SSW 8.7 km/h 10.8 km/h 98 % 0.0 mm
06:37 6.4 °C 6.1 °C 1024.9 hPa SSW 5.5 km/h 10.8 km/h 98 % 0.0 mm
06:42 6.4 °C 6.1 °C 1024.9 hPa South 6.4 km/h 10.1 km/h 98 % 0.0 mm
06:47 6.4 °C 6.1 °C 1024.9 hPa Calm   9.3 km/h 98 % 0.0 mm
06:52 6.4 °C 6.1 °C 1024.9 hPa South 9.7 km/h 10.1 km/h 98 % 0.0 mm
06:57 6.4 °C 6.1 °C 1024.9 hPa South 4.7 km/h 10.1 km/h 98 % 0.0 mm
07:02 6.4 °C 6.1 °C 1024.9 hPa SSE 9.3 km/h 10.1 km/h 98 % 0.0 mm
07:07 6.4 °C 6.1 °C 1024.9 hPa SSE 7.9 km/h 11.6 km/h 98 % 0.0 mm
07:12 6.3 °C 6.0 °C 1024.9 hPa SSE 6.4 km/h 13.0 km/h 98 % 0.0 mm
07:17 6.3 °C 6.0 °C 1024.9 hPa South 9.3 km/h 13.0 km/h 98 % 0.0 mm
07:22 6.3 °C 6.0 °C 1024.9 hPa South 7.2 km/h 9.7 km/h 98 % 0.0 mm
07:27 6.2 °C 5.9 °C 1024.9 hPa SSW 9.3 km/h 11.6 km/h 98 % 0.0 mm
07:32 6.2 °C 5.9 °C 1024.9 hPa South 6.4 km/h 11.6 km/h 98 % 0.0 mm
07:37 6.2 °C 5.9 °C 1024.9 hPa South 9.3 km/h 11.9 km/h 98 % 0.0 mm
07:42 6.1 °C 5.8 °C 1024.9 hPa South 13.0 km/h 13.0 km/h 98 % 0.0 mm
07:47 6.0 °C 5.7 °C 1024.9 hPa South 8.7 km/h 13.0 km/h 98 % 0.0 mm
07:52 6.0 °C 5.7 °C 1024.9 hPa South 5.0 km/h 12.6 km/h 98 % 0.0 mm
07:57 6.0 °C 5.7 °C 1024.9 hPa SSW 5.5 km/h 16.3 km/h 98 % 0.0 mm
08:02 6.0 °C 5.7 °C 1024.9 hPa SSW 7.6 km/h 16.3 km/h 98 % 0.0 mm
08:12 6.0 °C 5.7 °C 1024.9 hPa South 6.9 km/h 12.6 km/h 98 % 0.0 mm
08:17 6.0 °C 5.7 °C 1024.9 hPa South 9.7 km/h 12.6 km/h 98 % 0.0 mm
08:22 6.0 °C 5.7 °C 1023.9 hPa South 10.5 km/h 12.6 km/h 98 % 0.0 mm
08:28 6.0 °C 5.7 °C 1023.9 hPa South 9.7 km/h 12.6 km/h 98 % 0.0 mm
08:29 6.0 °C 5.7 °C 1023.9 hPa SSW 13.0 km/h 13.7 km/h 98 % 0.0 mm
08:34 6.0 °C 5.7 °C 1023.9 hPa South 6.9 km/h 13.7 km/h 98 % 0.0 mm
08:39 6.0 °C 5.7 °C 1024.9 hPa SSW 5.8 km/h 13.7 km/h 98 % 0.0 mm
08:44 6.0 °C 5.7 °C 1024.9 hPa South 10.1 km/h 14.0 km/h 98 % 0.0 mm
08:49 6.0 °C 5.7 °C 1024.9 hPa South 10.1 km/h 14.0 km/h 98 % 0.0 mm
08:54 5.9 °C 5.6 °C 1024.9 hPa SW 8.7 km/h 13.7 km/h 98 % 0.0 mm
08:59 5.9 °C 5.6 °C 1024.9 hPa SSW 7.9 km/h 12.6 km/h 98 % 0.0 mm
09:04 5.9 °C 5.6 °C 1024.9 hPa South 9.3 km/h 12.6 km/h 98 % 0.0 mm
09:09 5.8 °C 5.5 °C 1024.9 hPa SSW 9.0 km/h 12.2 km/h 98 % 0.0 mm
09:14 5.8 °C 5.5 °C 1024.9 hPa South 6.1 km/h 13.7 km/h 98 % 0.0 mm
09:19 5.8 °C 5.5 °C 1024.9 hPa South 11.9 km/h 13.7 km/h 98 % 0.0 mm
09:24 5.8 °C 5.5 °C 1024.9 hPa SW 10.1 km/h 13.7 km/h 98 % 0.0 mm
09:29 5.8 °C 5.5 °C 1024.9 hPa South 9.0 km/h 13.7 km/h 98 % 0.0 mm
09:34 5.8 °C 5.5 °C 1024.9 hPa SSW 9.0 km/h 12.6 km/h 98 % 0.0 mm
09:39 5.8 °C 5.5 °C 1024.9 hPa South 12.2 km/h 13.0 km/h 98 % 0.0 mm
09:44 5.8 °C 5.5 °C 1024.9 hPa South 6.4 km/h 15.4 km/h 98 % 0.0 mm
09:49 5.8 °C 5.5 °C 1024.9 hPa SSW 9.0 km/h 15.8 km/h 98 % 0.0 mm
09:54 5.8 °C 5.5 °C 1023.9 hPa SSW 5.5 km/h 15.8 km/h 98 % 0.0 mm
09:59 5.9 °C 5.6 °C 1023.9 hPa SSW 2.6 km/h 11.9 km/h 98 % 0.0 mm
10:04 5.9 °C 5.6 °C 1023.9 hPa SSW 7.9 km/h 11.6 km/h 98 % 0.0 mm
10:09 5.9 °C 5.6 °C 1023.9 hPa SSW 9.3 km/h 11.9 km/h 98 % 0.0 mm
10:14 5.9 °C 5.6 °C 1023.9 hPa SW 5.8 km/h 11.9 km/h 98 % 0.0 mm
10:19 6.0 °C 5.7 °C 1023.9 hPa Calm   10.1 km/h 98 % 0.0 mm
10:24 6.0 °C 5.7 °C 1023.9 hPa SSW 7.6 km/h 10.8 km/h 98 % 0.0 mm
10:29 6.1 °C 5.8 °C 1023.9 hPa South 4.7 km/h 10.8 km/h 98 % 0.0 mm
10:34 6.2 °C 5.9 °C 1023.9 hPa SSW 7.6 km/h 9.3 km/h 98 % 0.0 mm
10:39 6.2 °C 5.9 °C 1022.9 hPa South 6.9 km/h 9.7 km/h 98 % 0.0 mm
10:44 6.2 °C 5.9 °C 1022.9 hPa SSW 10.1 km/h 10.5 km/h 98 % 0.0 mm
10:49 6.2 °C 5.9 °C 1022.9 hPa South 8.7 km/h 14.0 km/h 98 % 0.0 mm
10:55 6.3 °C 6.0 °C 1022.9 hPa SSW 6.4 km/h 14.0 km/h 98 % 0.0 mm
11:00 6.3 °C 6.0 °C 1022.9 hPa South 13.0 km/h 13.0 km/h 98 % 0.0 mm
11:05 6.4 °C 6.1 °C 1022.9 hPa SW 6.1 km/h 13.0 km/h 98 % 0.0 mm
11:10 6.4 °C 6.1 °C 1023.9 hPa SSW 6.1 km/h 13.0 km/h 98 % 0.0 mm
11:15 6.4 °C 6.1 °C 1023.9 hPa SW 6.9 km/h 11.9 km/h 98 % 0.0 mm
11:20 6.4 °C 6.2 °C 1023.9 hPa SSW 5.0 km/h 13.0 km/h 98 % 0.0 mm
11:25 6.6 °C 6.3 °C 1022.9 hPa SSW 7.9 km/h 13.0 km/h 98 % 0.0 mm
11:30 6.6 °C 6.3 °C 1022.9 hPa SW 6.4 km/h 11.9 km/h 98 % 0.0 mm
11:35 6.7 °C 6.4 °C 1022.9 hPa South 6.4 km/h 12.2 km/h 98 % 0.0 mm
11:45 6.8 °C 6.6 °C 1022.9 hPa SSW 10.1 km/h 11.6 km/h 98 % 0.0 mm
11:50 6.8 °C 6.6 °C 1022.9 hPa South 7.6 km/h 11.6 km/h 98 % 0.0 mm
11:55 6.9 °C 6.7 °C 1022.9 hPa SSW 10.1 km/h 11.1 km/h 98 % 0.0 mm
12:00 7.2 °C 6.8 °C 1022.9 hPa South 11.6 km/h 11.6 km/h 98 % 0.0 mm
12:05 7.3 °C 6.9 °C 1022.9 hPa South 5.8 km/h 13.7 km/h 98 % 0.0 mm
12:10 7.4 °C 7.2 °C 1022.9 hPa South 11.6 km/h 13.7 km/h 98 % 0.0 mm
12:15 7.6 °C 7.3 °C 1022.9 hPa South 6.1 km/h 14.8 km/h 98 % 0.0 mm
12:20 7.6 °C 7.3 °C 1022.9 hPa SSW 9.0 km/h 15.8 km/h 98 % 0.0 mm
12:25 7.7 °C 7.3 °C 1021.9 hPa SSW 10.5 km/h 15.8 km/h 98 % 0.0 mm
12:35 7.7 °C 7.3 °C 1021.9 hPa SW 12.2 km/h 19.5 km/h 98 % 0.0 mm
12:40 7.7 °C 7.3 °C 1021.9 hPa SSW 7.9 km/h 19.5 km/h 98 % 0.0 mm
12:45 7.7 °C 7.3 °C 1021.9 hPa SSW 12.6 km/h 15.8 km/h 98 % 0.0 mm
12:50 7.7 °C 7.3 °C 1021.9 hPa SSW 9.0 km/h 15.8 km/h 98 % 0.0 mm
12:55 7.7 °C 7.4 °C 1021.9 hPa SW 9.7 km/h 13.0 km/h 98 % 0.0 mm
13:00 7.7 °C 7.3 °C 1021.9 hPa South 5.5 km/h 14.0 km/h 98 % 0.0 mm
13:05 7.7 °C 7.3 °C 1021.9 hPa South 6.9 km/h 14.0 km/h 98 % 0.0 mm
13:10 7.7 °C 7.4 °C 1020.9 hPa SSW 12.2 km/h 13.0 km/h 98 % 0.0 mm
13:15 7.7 °C 7.4 °C 1020.9 hPa SW 8.7 km/h 16.3 km/h 98 % 0.0 mm
13:20 7.7 °C 7.4 °C 1020.9 hPa SSW 9.3 km/h 16.3 km/h 98 % 0.0 mm
13:25 7.7 °C 7.4 °C 1020.9 hPa SSW 9.7 km/h 14.0 km/h 98 % 0.0 mm
13:30 7.7 °C 7.4 °C 1020.9 hPa SSW 13.7 km/h 14.0 km/h 98 % 0.0 mm
13:35 7.7 °C 7.3 °C 1020.9 hPa South 7.9 km/h 13.7 km/h 98 % 0.0 mm
13:40 7.7 °C 7.3 °C 1020.9 hPa SSW 10.1 km/h 14.0 km/h 98 % 0.0 mm
13:50 7.7 °C 7.4 °C 1020.9 hPa SW 5.8 km/h 13.7 km/h 98 % 0.0 mm
13:55 7.7 °C 7.4 °C 1020.9 hPa SW 14.0 km/h 14.0 km/h 98 % 0.0 mm
14:00 7.7 °C 7.4 °C 1020.9 hPa SSW 9.3 km/h 14.0 km/h 98 % 0.0 mm
14:05 7.8 °C 7.6 °C 1020.9 hPa South 13.0 km/h 13.0 km/h 98 % 0.0 mm
14:10 7.8 °C 7.6 °C 1020.9 hPa South 10.5 km/h 13.7 km/h 98 % 0.0 mm
14:15 7.8 °C 7.6 °C 1020.9 hPa South 9.0 km/h 16.6 km/h 98 % 0.0 mm
14:18 7.9 °C 7.7 °C 1020.9 hPa SSW 5.8 km/h 16.6 km/h 98 % 0.0 mm
14:23 7.9 °C 7.7 °C 1019.9 hPa SW 7.9 km/h 13.7 km/h 98 % 0.0 mm
14:28 7.9 °C 7.7 °C 1019.9 hPa SSW 11.9 km/h 15.8 km/h 98 % 0.0 mm
14:33 7.9 °C 7.7 °C 1019.9 hPa South 6.9 km/h 15.8 km/h 98 % 0.0 mm
14:38 7.9 °C 7.7 °C 1018.8 hPa SSW 10.1 km/h 16.3 km/h 98 % 0.0 mm
14:43 7.9 °C 7.7 °C 1018.8 hPa SSW 13.7 km/h 19.8 km/h 98 % 0.0 mm
14:48 7.9 °C 7.7 °C 1018.8 hPa SW 10.1 km/h 19.8 km/h 98 % 0.0 mm
14:53 7.9 °C 7.7 °C 1018.8 hPa South 9.0 km/h 16.9 km/h 98 % 0.0 mm
14:58 7.9 °C 7.7 °C 1018.8 hPa SSW 9.7 km/h 16.9 km/h 98 % 0.0 mm
15:03 7.9 °C 7.7 °C 1018.8 hPa South 8.7 km/h 15.8 km/h 98 % 0.0 mm
15:08 7.9 °C 7.7 °C 1018.8 hPa SSW 9.7 km/h 12.2 km/h 98 % 0.0 mm
15:13 7.9 °C 7.7 °C 1018.8 hPa South 7.6 km/h 13.7 km/h 98 % 0.0 mm
15:18 8.1 °C 7.7 °C 1018.8 hPa South 10.5 km/h 14.0 km/h 98 % 0.0 mm
15:23 8.1 °C 7.7 °C 1018.8 hPa SSW 11.6 km/h 14.0 km/h 98 % 0.0 mm
15:28 8.1 °C 7.8 °C 1018.8 hPa South 13.7 km/h 13.7 km/h 98 % 0.0 mm
15:33 8.1 °C 7.8 °C 1018.8 hPa South 9.3 km/h 17.2 km/h 98 % 0.0 mm
15:38 8.1 °C 7.8 °C 1018.2 hPa South 9.3 km/h 17.2 km/h 98 % 0.0 mm
15:43 8.1 °C 7.8 °C 1018.2 hPa South 12.2 km/h 14.0 km/h 98 % 0.0 mm
15:48 8.1 °C 7.7 °C 1018.2 hPa SSW 11.9 km/h 13.7 km/h 98 % 0.0 mm
15:53 8.1 °C 7.7 °C 1018.2 hPa SSW 9.0 km/h 14.0 km/h 98 % 0.0 mm
15:58 8.1 °C 7.7 °C 1018.2 hPa South 10.5 km/h 16.3 km/h 98 % 0.0 mm
16:03 8.1 °C 7.7 °C 1018.2 hPa SSW 6.9 km/h 16.3 km/h 98 % 0.0 mm
16:08 8.1 °C 7.7 °C 1016.8 hPa SSW 10.5 km/h 16.3 km/h 98 % 0.0 mm
16:13 8.1 °C 7.7 °C 1016.8 hPa South 7.9 km/h 19.8 km/h 98 % 0.0 mm
16:18 8.1 °C 7.7 °C 1016.8 hPa SSW 9.7 km/h 19.8 km/h 98 % 0.0 mm
16:23 8.1 °C 7.7 °C 1016.8 hPa South 21.2 km/h 21.2 km/h 98 % 0.0 mm
16:28 8.1 °C 7.6 °C 1016.8 hPa SSW 9.0 km/h 21.2 km/h 97 % 0.0 mm
16:33 8.1 °C 7.6 °C 1016.8 hPa South 11.9 km/h 21.2 km/h 97 % 0.0 mm
16:38 8.1 °C 7.6 °C 1016.8 hPa SSW 10.5 km/h 16.6 km/h 97 % 0.0 mm
16:43 8.1 °C 7.6 °C 1016.8 hPa South 10.5 km/h 16.6 km/h 97 % 0.0 mm
16:48 8.1 °C 7.6 °C 1016.8 hPa SW 8.7 km/h 16.6 km/h 97 % 0.0 mm
16:53 8.1 °C 7.6 °C 1016.8 hPa SSW 12.2 km/h 17.2 km/h 97 % 0.0 mm
16:58 8.1 °C 7.6 °C 1016.8 hPa SSE 13.7 km/h 17.2 km/h 97 % 0.0 mm
17:03 8.1 °C 7.6 °C 1016.8 hPa South 12.2 km/h 17.7 km/h 97 % 0.0 mm
17:08 8.1 °C 7.4 °C 1016.1 hPa SW 9.3 km/h 17.7 km/h 96 % 0.0 mm
17:13 8.1 °C 7.4 °C 1016.1 hPa SW 5.0 km/h 17.7 km/h 96 % 0.0 mm
17:16 8.1 °C 7.4 °C 1016.1 hPa SW 5.0 km/h 17.7 km/h 96 % 0.0 mm
17:21 8.1 °C 7.4 °C 1016.1 hPa SSW 10.5 km/h 15.4 km/h 96 % 0.0 mm
17:26 8.1 °C 7.4 °C 1016.8 hPa SSW 16.9 km/h 16.9 km/h 96 % 0.0 mm
17:31 8.1 °C 7.6 °C 1016.8 hPa WSW 9.7 km/h 17.2 km/h 96 % 0.0 mm
17:36 8.1 °C 7.6 °C 1016.8 hPa SW 13.0 km/h 17.7 km/h 96 % 0.0 mm
17:41 8.1 °C 7.6 °C 1016.8 hPa SSW 7.9 km/h 17.7 km/h 96 % 0.0 mm
17:46 8.1 °C 7.4 °C 1016.8 hPa SSW 10.1 km/h 11.9 km/h 96 % 0.0 mm
17:51 8.1 °C 7.4 °C 1016.8 hPa SSW 13.0 km/h 15.8 km/h 96 % 0.0 mm
17:56 8.1 °C 7.4 °C 1016.1 hPa SSW 11.1 km/h 15.8 km/h 96 % 0.0 mm
18:01 8.1 °C 7.4 °C 1016.1 hPa SW 11.9 km/h 17.2 km/h 95 % 0.0 mm
18:11 8.1 °C 7.3 °C 1016.1 hPa SSW 9.7 km/h 16.9 km/h 95 % 0.0 mm
18:16 8.1 °C 7.3 °C 1016.1 hPa WSW 14.0 km/h 15.1 km/h 95 % 0.0 mm
18:21 8.1 °C 7.3 °C 1016.1 hPa SSW 13.0 km/h 18.3 km/h 95 % 0.0 mm
18:26 7.9 °C 7.2 °C 1015.1 hPa SSW 7.9 km/h 18.3 km/h 95 % 0.0 mm
18:31 7.9 °C 7.2 °C 1015.1 hPa South 13.7 km/h 17.7 km/h 95 % 0.0 mm
18:36 7.9 °C 7.2 °C 1015.1 hPa SSW 12.2 km/h 17.7 km/h 95 % 0.0 mm
18:41 7.9 °C 7.2 °C 1014.1 hPa SSW 12.2 km/h 16.9 km/h 95 % 0.0 mm
18:46 7.9 °C 7.2 °C 1014.1 hPa SW 10.1 km/h 16.9 km/h 95 % 0.0 mm
18:51 7.8 °C 7.1 °C 1014.1 hPa South 10.1 km/h 15.4 km/h 95 % 0.3 mm
18:56 7.8 °C 7.1 °C 1015.1 hPa SSW 12.6 km/h 15.8 km/h 95 % 0.3 mm
19:01 7.8 °C 7.1 °C 1015.1 hPa South 13.0 km/h 16.9 km/h 95 % 0.5 mm
19:06 7.8 °C 7.1 °C 1015.1 hPa South 5.8 km/h 16.9 km/h 95 % 0.5 mm
19:11 7.8 °C 7.1 °C 1014.1 hPa SSW 7.6 km/h 17.2 km/h 95 % 0.5 mm
19:16 7.8 °C 7.1 °C 1014.1 hPa SSW 7.9 km/h 17.2 km/h 95 % 0.5 mm
19:21 7.8 °C 7.1 °C 1014.1 hPa SSW 12.2 km/h 17.2 km/h 95 % 0.5 mm
19:26 7.8 °C 7.1 °C 1014.1 hPa SSW 10.1 km/h 17.7 km/h 95 % 0.5 mm
19:31 7.8 °C 7.1 °C 1014.1 hPa South 9.7 km/h 17.7 km/h 95 % 0.5 mm
19:36 7.8 °C 7.1 °C 1014.1 hPa South 12.2 km/h 16.3 km/h 95 % 0.5 mm
19:41 7.8 °C 7.1 °C 1014.1 hPa SSW 10.5 km/h 17.7 km/h 95 % 0.5 mm
19:46 7.8 °C 7.1 °C 1014.1 hPa South 15.8 km/h 17.7 km/h 95 % 0.3 mm
19:51 7.8 °C 7.1 °C 1014.1 hPa SSW 6.9 km/h 17.2 km/h 95 % 0.8 mm
19:56 7.8 °C 7.1 °C 1013.1 hPa SSW 9.0 km/h 16.3 km/h 95 % 0.8 mm
20:01 7.8 °C 7.1 °C 1013.1 hPa SSW 9.7 km/h 16.3 km/h 95 % 0.3 mm
20:06 7.8 °C 7.1 °C 1013.1 hPa SSW 9.3 km/h 17.7 km/h 95 % 0.3 mm
20:11 7.8 °C 7.1 °C 1013.1 hPa SSW 10.1 km/h 17.7 km/h 95 % 0.3 mm
20:16 7.8 °C 7.1 °C 1013.1 hPa South 10.5 km/h 15.8 km/h 95 % 0.3 mm
20:21 7.8 °C 7.1 °C 1013.1 hPa South 10.5 km/h 15.8 km/h 95 % 0.8 mm
20:26 7.8 °C 7.1 °C 1013.1 hPa WSW 9.7 km/h 16.3 km/h 95 % 0.8 mm
20:31 7.8 °C 7.1 °C 1013.1 hPa SW 9.7 km/h 19.5 km/h 95 % 0.8 mm
20:36 7.9 °C 7.2 °C 1013.1 hPa South 8.7 km/h 19.5 km/h 95 % 1.0 mm
20:41 7.8 °C 7.1 °C 1012.1 hPa SSW 9.0 km/h 20.6 km/h 95 % 1.0 mm
20:46 7.8 °C 7.1 °C 1012.1 hPa SSW 6.9 km/h 20.6 km/h 95 % 1.0 mm
20:51 7.8 °C 7.1 °C 1012.1 hPa SW 9.7 km/h 15.4 km/h 95 % 0.8 mm
20:56 7.8 °C 7.1 °C 1011.1 hPa WSW 13.0 km/h 16.3 km/h 95 % 1.0 mm
21:01 7.8 °C 7.1 °C 1011.1 hPa South 6.4 km/h 19.5 km/h 95 % 1.0 mm
21:06 7.8 °C 7.1 °C 1011.1 hPa South 9.3 km/h 19.8 km/h 95 % 1.5 mm
21:11 7.8 °C 7.1 °C 1011.1 hPa SSW 14.8 km/h 19.8 km/h 95 % 1.5 mm
21:16 7.8 °C 7.1 °C 1011.1 hPa SSW 13.7 km/h 19.8 km/h 95 % 1.8 mm
21:21 7.8 °C 7.1 °C 1011.1 hPa SW 13.0 km/h 22.7 km/h 95 % 1.5 mm
21:26 7.8 °C 7.1 °C 1011.1 hPa SSW 10.8 km/h 22.7 km/h 95 % 1.8 mm
21:31 7.8 °C 7.1 °C 1011.1 hPa SSE 21.9 km/h 21.9 km/h 95 % 1.8 mm
21:36 7.8 °C 7.1 °C 1011.1 hPa South 6.1 km/h 21.9 km/h 95 % 1.8 mm
21:41 7.8 °C 7.1 °C 1011.1 hPa SSW 7.9 km/h 19.5 km/h 95 % 2.0 mm
21:46 7.8 °C 7.1 °C 1011.1 hPa SSW 9.7 km/h 25.9 km/h 95 % 2.0 mm
21:52 7.8 °C 7.1 °C 1010.0 hPa SSE 12.2 km/h 25.9 km/h 95 % 1.8 mm
21:57 7.8 °C 7.1 °C 1010.0 hPa SSW 12.2 km/h 20.9 km/h 95 % 1.5 mm
22:02 7.8 °C 7.1 °C 1010.0 hPa SSW 17.2 km/h 22.7 km/h 95 % 1.5 mm
22:07 7.7 °C 7.0 °C 1010.0 hPa South 11.9 km/h 22.7 km/h 95 % 2.0 mm
22:12 7.7 °C 7.0 °C 1010.0 hPa SSW 16.6 km/h 20.1 km/h 95 % 2.0 mm
22:17 7.7 °C 7.0 °C 1010.0 hPa SSW 11.9 km/h 19.5 km/h 95 % 1.8 mm
22:22 7.7 °C 7.0 °C 1010.0 hPa SSW 13.7 km/h 19.5 km/h 95 % 2.0 mm
22:32 7.7 °C 7.0 °C 1010.0 hPa SSW 10.5 km/h 21.9 km/h 95 % 1.8 mm
22:37 7.7 °C 7.0 °C 1009.0 hPa SW 12.6 km/h 19.5 km/h 95 % 1.8 mm
22:42 7.7 °C 6.9 °C 1009.0 hPa SW 16.3 km/h 19.5 km/h 95 % 1.5 mm
22:47 7.7 °C 6.9 °C 1009.0 hPa SSW 9.7 km/h 17.7 km/h 95 % 1.5 mm
22:52 7.7 °C 6.9 °C 1008.0 hPa SSW 12.2 km/h 17.7 km/h 95 % 1.5 mm
22:57 7.7 °C 6.9 °C 1008.0 hPa SW 16.9 km/h 17.7 km/h 95 % 1.5 mm
23:02 7.7 °C 6.9 °C 1008.0 hPa WSW 12.6 km/h 17.7 km/h 95 % 1.5 mm
23:07 7.7 °C 6.9 °C 1009.0 hPa SSW 9.7 km/h 19.8 km/h 95 % 0.8 mm
23:12 7.7 °C 6.9 °C 1009.0 hPa SSW 10.5 km/h 19.8 km/h 95 % 1.0 mm
23:17 7.7 °C 7.0 °C 1009.0 hPa SW 14.0 km/h 19.5 km/h 95 % 1.0 mm
23:22 7.7 °C 7.0 °C 1009.0 hPa SW 10.1 km/h 20.6 km/h 95 % 0.5 mm
23:27 7.7 °C 7.0 °C 1009.0 hPa WSW 9.7 km/h 20.6 km/h 95 % 0.5 mm
23:32 7.7 °C 7.2 °C 1009.0 hPa WSW 16.6 km/h 22.4 km/h 96 % 0.5 mm
23:37 7.7 °C 7.2 °C 1008.0 hPa WSW 13.0 km/h 22.4 km/h 96 % 0.3 mm
23:42 7.7 °C 7.2 °C 1008.0 hPa West 14.0 km/h 17.2 km/h 96 % 0.3 mm
23:47 7.8 °C 7.1 °C 1008.0 hPa WNW 11.6 km/h 17.2 km/h 95 % 0.3 mm
23:52 7.3 °C 6.6 °C 1009.0 hPa NNE 5.8 km/h 19.8 km/h 95 % 1.8 mm
23:57 7.1 °C 6.3 °C 1009.0 hPa NW 6.4 km/h 19.8 km/h 95 % 1.8 mm
Le Gheer Warneton
Courtoisie de Weather Underground - 2.25 mb

Mise a jour : 17-12-17 03:09:23
Généré par Cumulus 1.9.4 (1099)